Urb Medina, Puerto Rico
Current Conditions -  °F | °C
As of 1:50 PM on Thursday 29 Jan 2015 (Local Time) from TJBQ Reporting Station
Scattered Clouds Scattered Clouds  
Wind Chill: 82°   Ceiling: Unl
Heat Index: 85°   Visibility: 10mi
Dew Point: 68°   Wind: 14mph
Humidity: 62%   Direction: 70°ENE
Pressure: 30.01"   Gusts: NA
Location:  18.4738°N, 66.9364°W
Report Text: TJBQ 291750Z 07012KT 10SM SCT090 28/20 A3001 RMK RWY 08 ATIS I
Loading
Personal Weather Stations






























Interactive Weather Map New forecast layout! Learn more

10-Day Weather Forecast

Advertisements
Track Severe Weather on mobile